Time;durP1;ratioP1;P1;durP2;ratioP2;P2;SDS_P1;SDS_P2;PMS_P1;PMS_P2;Temp;Humidity;BMP_temperature;BMP_pressure;BME280_temperature;BME280_humidity;BME280_pressure;Samples;Min_cycle;Max_cycle;Signal;HPM_P1;HPM_P2
2022/07/24 00:01:45;;;;;;;0.20;0.20;;;17.20;99.90;;;;;;5062764;28;20052;-80
2022/07/24 00:04:11;;;;;;;0.20;0.20;;;17.10;99.90;;;;;;5065399;28;20036;-80
2022/07/24 00:06:37;;;;;;;0.20;0.20;;;17.10;99.90;;;;;;5059552;28;20068;-80
2022/07/24 00:09:04;;;;;;;0.20;0.20;;;17.10;99.90;;;;;;5055620;28;20040;-79
2022/07/24 00:11:29;;;;;;;0.20;0.20;;;17.10;99.90;;;;;;5071902;28;20124;-80
2022/07/24 00:13:55;;;;;;;0.20;0.20;;;17.10;99.90;;;;;;5064152;28;21358;-79
2022/07/24 00:16:21;;;;;;;0.20;0.20;;;17.10;99.90;;;;;;5067037;28;20047;-79
2022/07/24 00:18:47;;;;;;;0.20;0.20;;;17.00;99.90;;;;;;5066625;28;20186;-79
2022/07/24 00:21:12;;;;;;;0.13;0.13;;;17.00;99.90;;;;;;5055855;28;20477;-79
2022/07/24 00:23:38;;;;;;;0.20;0.20;;;17.00;99.90;;;;;;5057673;28;20485;-79
2022/07/24 00:26:04;;;;;;;0.20;0.20;;;17.00;99.90;;;;;;5063226;28;20137;-80
2022/07/24 00:28:29;;;;;;;0.20;0.20;;;17.00;99.90;;;;;;5067894;28;20044;-79
2022/07/24 00:30:56;;;;;;;0.20;0.20;;;16.90;99.90;;;;;;5071619;28;20045;-79
2022/07/24 00:33:22;;;;;;;0.20;0.20;;;17.00;99.90;;;;;;5076487;28;20028;-79
2022/07/24 00:35:47;;;;;;;0.20;0.20;;;17.00;99.90;;;;;;5080053;28;20373;-80
2022/07/24 00:38:13;;;;;;;0.22;0.22;;;17.00;99.90;;;;;;5073604;28;20123;-80
2022/07/24 00:40:39;;;;;;;0.10;0.10;;;17.00;99.90;;;;;;5068904;28;20493;-80
2022/07/24 00:43:04;;;;;;;0.15;0.15;;;16.90;99.90;;;;;;5071000;28;20110;-80
2022/07/24 00:45:30;;;;;;;0.20;0.20;;;16.90;99.90;;;;;;5086742;28;20128;-80
2022/07/24 00:47:59;;;;;;;0.20;0.20;;;16.90;99.90;;;;;;5077554;28;20484;-80
2022/07/24 00:50:25;;;;;;;0.20;0.20;;;16.90;99.90;;;;;;5080614;28;20047;-79
2022/07/24 00:52:52;;;;;;;0.10;0.10;;;16.90;99.90;;;;;;5066789;28;20067;-80
2022/07/24 00:55:21;;;;;;;0.17;0.17;;;16.90;99.90;;;;;;5077258;28;20036;-80
2022/07/24 00:57:48;;;;;;;0.20;0.20;;;16.90;99.90;;;;;;5073931;28;20052;-80
2022/07/24 01:00:15;;;;;;;0.10;0.10;;;16.90;99.90;;;;;;5066596;28;20404;-80
2022/07/24 01:02:42;;;;;;;0.20;0.20;;;16.80;99.90;;;;;;5062801;28;20048;-78
2022/07/24 01:05:11;;;;;;;0.20;0.20;;;16.80;99.90;;;;;;5077151;28;20032;-79
2022/07/24 01:07:37;;;;;;;0.10;0.10;;;16.80;99.90;;;;;;5072722;28;20071;-79
2022/07/24 01:10:05;;;;;;;0.10;0.10;;;16.80;99.90;;;;;;5072154;28;20059;-80
2022/07/24 01:12:32;;;;;;;0.13;0.13;;;16.80;99.90;;;;;;5072291;28;20575;-78
2022/07/24 01:14:58;;;;;;;0.17;0.17;;;16.80;99.90;;;;;;5072033;28;20036;-78
2022/07/24 01:17:31;;;;;;;0.20;0.20;;;16.70;99.90;;;;;;5083688;28;20090;-79
2022/07/24 01:19:57;;;;;;;0.20;0.20;;;16.80;99.90;;;;;;5074174;28;20072;-79
2022/07/24 01:22:25;;;;;;;0.20;0.20;;;16.70;99.90;;;;;;5082697;28;20407;-79
2022/07/24 01:24:51;;;;;;;0.20;0.20;;;16.70;99.90;;;;;;5062043;28;20424;-79
2022/07/24 01:27:17;;;;;;;0.20;0.20;;;16.70;99.90;;;;;;5067278;28;20041;-80
2022/07/24 01:29:43;;;;;;;0.20;0.20;;;16.60;99.90;;;;;;5059793;28;20029;-79
2022/07/24 01:32:08;;;;;;;0.20;0.20;;;16.60;99.90;;;;;;5066071;28;20048;-79
2022/07/24 01:34:34;;;;;;;0.20;0.20;;;16.60;99.90;;;;;;5060713;28;20563;-79
2022/07/24 01:36:59;;;;;;;0.13;0.13;;;16.60;99.90;;;;;;5054599;28;20061;-79
2022/07/24 01:39:25;;;;;;;0.10;0.10;;;16.60;99.90;;;;;;5070646;28;20115;-79
2022/07/24 01:41:51;;;;;;;0.13;0.13;;;16.70;99.90;;;;;;5070471;28;20440;-80
2022/07/24 01:44:16;;;;;;;0.20;0.20;;;16.60;99.90;;;;;;5068549;28;20036;-79
2022/07/24 01:46:42;;;;;;;0.20;0.20;;;16.60;99.90;;;;;;5071520;28;20105;-79
2022/07/24 01:49:11;;;;;;;0.13;0.13;;;16.70;99.90;;;;;;5093191;28;20048;-79
2022/07/24 01:51:37;;;;;;;0.20;0.20;;;16.70;99.90;;;;;;5073972;28;20349;-79
2022/07/24 01:54:03;;;;;;;0.15;0.15;;;16.60;99.90;;;;;;5058902;28;20045;-78
2022/07/24 01:56:30;;;;;;;0.20;0.20;;;16.60;99.90;;;;;;5070262;28;20047;-79
2022/07/24 01:58:56;;;;;;;0.20;0.20;;;16.60;99.90;;;;;;5072392;28;20057;-79
2022/07/24 02:01:21;;;;;;;0.10;0.10;;;16.60;99.90;;;;;;5068825;28;20495;-80
2022/07/24 02:03:48;;;;;;;0.20;0.20;;;16.60;99.90;;;;;;5066002;28;20091;-79
2022/07/24 02:06:14;;;;;;;0.20;0.20;;;16.60;99.90;;;;;;5067802;28;20048;-79
2022/07/24 02:08:40;;;;;;;0.20;0.20;;;16.60;99.90;;;;;;5068683;28;20060;-79
2022/07/24 02:11:05;;;;;;;0.10;0.10;;;16.50;99.90;;;;;;5070625;28;20044;-79
2022/07/24 02:13:34;;;;;;;0.20;0.20;;;16.50;99.90;;;;;;5070250;28;20480;-79
2022/07/24 02:15:59;;;;;;;0.15;0.15;;;16.50;99.90;;;;;;5070454;28;20053;-79
2022/07/24 02:18:25;;;;;;;0.20;0.20;;;16.60;99.90;;;;;;5070391;28;20072;-78
2022/07/24 02:20:51;;;;;;;0.20;0.20;;;16.50;99.90;;;;;;5069283;28;20037;-78
2022/07/24 02:23:19;;;;;;;0.13;0.13;;;16.50;99.90;;;;;;5069354;28;20151;-78
2022/07/24 02:25:49;;;;;;;0.20;0.20;;;16.50;99.90;;;;;;5069327;28;20036;-78
2022/07/24 02:28:18;;;;;;;0.20;0.20;;;16.50;99.90;;;;;;5068111;28;20840;-78
2022/07/24 02:30:44;;;;;;;0.10;0.10;;;16.50;99.90;;;;;;5070792;28;20048;-78
2022/07/24 02:33:10;;;;;;;0.20;0.20;;;16.50;99.90;;;;;;5072036;28;20077;-78
2022/07/24 02:35:36;;;;;;;0.20;0.20;;;16.50;99.90;;;;;;5052563;28;20406;-78
2022/07/24 02:38:03;;;;;;;0.20;0.20;;;16.50;99.90;;;;;;5088260;28;20426;-78
2022/07/24 02:40:29;;;;;;;0.15;0.15;;;16.50;99.90;;;;;;5068447;28;20044;-77
2022/07/24 02:42:55;;;;;;;0.20;0.20;;;16.40;99.90;;;;;;5064368;28;20044;-77
2022/07/24 02:45:21;;;;;;;0.10;0.10;;;16.40;99.90;;;;;;5072775;28;20038;-78
2022/07/24 02:47:54;;;;;;;0.10;0.10;;;16.40;99.90;;;;;;5072016;28;20446;-79
2022/07/24 02:50:21;;;;;;;0.20;0.20;;;16.40;99.90;;;;;;5060558;28;20087;-79
2022/07/24 02:52:50;;;;;;;0.20;0.20;;;16.40;99.90;;;;;;5069916;28;20083;-78
2022/07/24 02:55:16;;;;;;;0.10;0.10;;;16.30;99.90;;;;;;5062225;28;20131;-78
2022/07/24 02:57:42;;;;;;;0.10;0.10;;;16.30;99.90;;;;;;5069137;28;20136;-78
2022/07/24 03:00:11;;;;;;;0.20;0.20;;;16.30;99.90;;;;;;5056551;28;20049;-78
2022/07/24 03:02:37;;;;;;;0.20;0.20;;;16.40;99.90;;;;;;5062814;28;20047;-79
2022/07/24 03:05:04;;;;;;;0.20;0.20;;;16.30;99.90;;;;;;5070594;28;20041;-79
2022/07/24 03:07:30;;;;;;;0.20;0.20;;;16.30;99.90;;;;;;5071143;28;20051;-78
2022/07/24 03:09:56;;;;;;;0.20;0.20;;;16.30;99.90;;;;;;5066271;28;20184;-79
2022/07/24 03:12:22;;;;;;;0.20;0.20;;;16.30;99.90;;;;;;5066927;28;20455;-80
2022/07/24 03:14:48;;;;;;;0.20;0.20;;;16.30;99.90;;;;;;5056248;28;20037;-79
2022/07/24 03:17:14;;;;;;;0.10;0.10;;;16.30;99.90;;;;;;5062243;28;20449;-79
2022/07/24 03:19:39;;;;;;;0.10;0.10;;;16.30;99.90;;;;;;5066308;28;20040;-79
2022/07/24 03:22:05;;;;;;;0.17;0.17;;;16.30;99.90;;;;;;5069862;28;20127;-79
2022/07/24 03:24:30;;;;;;;0.20;0.20;;;16.30;99.90;;;;;;5059713;28;20055;-78
2022/07/24 03:26:56;;;;;;;0.10;0.10;;;16.30;99.90;;;;;;5051337;28;20127;-80
2022/07/24 03:29:22;;;;;;;0.10;0.10;;;16.30;99.90;;;;;;5062010;28;20128;-79
2022/07/24 03:31:48;;;;;;;0.20;0.20;;;16.20;99.90;;;;;;5054211;28;20565;-79
2022/07/24 03:34:14;;;;;;;0.20;0.20;;;16.20;99.90;;;;;;5060168;28;20075;-79
2022/07/24 03:36:39;;;;;;;0.10;0.10;;;16.20;99.90;;;;;;5051320;28;20041;-79
2022/07/24 03:39:05;;;;;;;0.10;0.10;;;16.20;99.90;;;;;;5048721;28;20404;-78
2022/07/24 03:41:31;;;;;;;0.20;0.20;;;16.10;99.90;;;;;;5072451;28;20089;-78
2022/07/24 03:43:57;;;;;;;0.20;0.20;;;16.10;99.90;;;;;;5082572;28;20063;-78
2022/07/24 03:46:23;;;;;;;0.20;0.20;;;16.10;99.90;;;;;;5074040;28;20100;-78
2022/07/24 03:48:51;;;;;;;0.20;0.20;;;16.10;99.90;;;;;;5068703;28;20028;-79
2022/07/24 03:51:20;;;;;;;0.20;0.20;;;16.00;99.90;;;;;;5065186;28;20076;-78
2022/07/24 03:53:46;;;;;;;0.20;0.20;;;16.00;99.90;;;;;;5077217;28;20048;-78
2022/07/24 03:56:17;;;;;;;0.10;0.10;;;16.00;99.90;;;;;;5077218;28;20044;-78
2022/07/24 03:58:43;;;;;;;0.20;0.20;;;16.00;99.90;;;;;;5071431;28;20045;-79
2022/07/24 04:01:11;;;;;;;0.10;0.10;;;16.10;99.90;;;;;;5057616;28;20107;-78
2022/07/24 04:03:37;;;;;;;0.20;0.20;;;16.00;99.90;;;;;;5078266;28;20058;-78
2022/07/24 04:06:04;;;;;;;0.10;0.10;;;16.00;99.90;;;;;;5076273;28;20042;-78
2022/07/24 04:08:30;;;;;;;0.20;0.20;;;16.00;99.90;;;;;;5064769;28;20040;-79
2022/07/24 04:10:59;;;;;;;0.17;0.17;;;16.00;99.90;;;;;;5069656;28;20051;-78
2022/07/24 04:13:30;;;;;;;0.20;0.20;;;16.00;99.90;;;;;;5075542;28;20080;-79
2022/07/24 04:15:57;;;;;;;0.15;0.15;;;16.00;99.90;;;;;;5059828;28;20053;-79
2022/07/24 04:18:23;;;;;;;0.20;0.20;;;15.90;99.90;;;;;;5076248;28;20098;-78
2022/07/24 04:20:49;;;;;;;0.20;0.20;;;15.90;99.90;;;;;;5071810;28;20040;-79
2022/07/24 04:23:15;;;;;;;0.20;0.20;;;15.90;99.90;;;;;;5074994;28;20764;-78
2022/07/24 04:25:41;;;;;;;0.20;0.20;;;15.90;99.90;;;;;;5081698;28;20048;-79
2022/07/24 04:28:07;;;;;;;0.13;0.13;;;16.00;99.90;;;;;;5070484;28;20044;-78
2022/07/24 04:30:32;;;;;;;0.20;0.20;;;15.90;99.90;;;;;;5068126;28;20037;-79
2022/07/24 04:32:58;;;;;;;0.10;0.10;;;16.00;99.90;;;;;;5085543;28;20044;-79
2022/07/24 04:35:24;;;;;;;0.20;0.20;;;16.00;99.90;;;;;;5076501;28;20488;-79
2022/07/24 04:37:50;;;;;;;0.20;0.20;;;15.90;99.90;;;;;;5083622;28;20039;-79
2022/07/24 04:40:15;;;;;;;0.20;0.20;;;15.90;99.90;;;;;;5067873;28;20502;-78
2022/07/24 04:42:41;;;;;;;0.10;0.10;;;15.90;99.90;;;;;;5065087;28;20044;-79
2022/07/24 04:45:09;;;;;;;0.20;0.20;;;15.90;99.90;;;;;;5064548;28;20044;-79
2022/07/24 04:47:35;;;;;;;0.10;0.10;;;15.90;99.90;;;;;;5079610;28;20769;-78
2022/07/24 04:50:01;;;;;;;0.20;0.20;;;15.90;99.90;;;;;;5055365;28;20043;-78
2022/07/24 04:52:26;;;;;;;0.20;0.20;;;15.80;99.90;;;;;;5061843;28;20039;-78
2022/07/24 04:54:52;;;;;;;0.15;0.15;;;15.90;99.90;;;;;;5074699;28;20032;-78
2022/07/24 04:57:18;;;;;;;0.10;0.10;;;15.90;99.90;;;;;;5066901;28;20499;-78
2022/07/24 04:59:43;;;;;;;0.20;0.20;;;15.90;99.90;;;;;;5061657;28;20047;-78
2022/07/24 05:02:12;;;;;;;0.15;0.15;;;15.90;99.90;;;;;;5069273;28;20044;-79
2022/07/24 05:04:41;;;;;;;0.20;0.20;;;15.90;99.90;;;;;;5061576;28;20032;-77
2022/07/24 05:07:06;;;;;;;0.20;0.20;;;15.90;99.90;;;;;;5080314;28;20093;-78
2022/07/24 05:09:32;;;;;;;0.20;0.20;;;15.90;99.90;;;;;;5072947;28;20082;-78
2022/07/24 05:12:00;;;;;;;0.20;0.20;;;16.00;99.90;;;;;;5067340;28;20121;-77
2022/07/24 05:14:26;;;;;;;0.20;0.20;;;16.00;99.90;;;;;;5065099;28;20122;-79
2022/07/24 05:16:51;;;;;;;0.10;0.10;;;16.10;99.90;;;;;;5083340;28;20040;-79
2022/07/24 05:19:17;;;;;;;0.10;0.10;;;16.20;99.90;;;;;;5073710;28;20049;-79
2022/07/24 05:21:43;;;;;;;0.13;0.13;;;16.30;99.90;;;;;;5082054;28;20043;-79
2022/07/24 05:24:09;;;;;;;0.10;0.10;;;16.40;99.90;;;;;;5060119;28;20037;-78
2022/07/24 05:26:34;;;;;;;0.20;0.20;;;16.40;99.90;;;;;;5068697;28;20126;-79
2022/07/24 05:29:05;;;;;;;0.20;0.20;;;16.30;99.90;;;;;;5085051;28;20060;-78
2022/07/24 05:31:31;;;;;;;0.20;0.20;;;16.40;99.90;;;;;;5064125;28;20056;-78
2022/07/24 05:33:58;;;;;;;0.15;0.15;;;16.50;99.90;;;;;;5070301;28;20075;-78
2022/07/24 05:36:24;;;;;;;0.20;0.20;;;16.50;99.90;;;;;;5084376;28;20177;-79
2022/07/24 05:38:50;;;;;;;0.20;0.20;;;16.60;99.90;;;;;;5091255;28;20051;-78
2022/07/24 05:41:16;;;;;;;0.10;0.10;;;16.60;99.90;;;;;;5068776;28;20045;-78
2022/07/24 05:43:41;;;;;;;0.20;0.20;;;16.70;99.90;;;;;;5078378;28;20049;-78
2022/07/24 05:46:07;;;;;;;0.20;0.20;;;16.70;99.90;;;;;;5086575;28;20121;-78
2022/07/24 05:48:33;;;;;;;0.10;0.10;;;16.80;99.90;;;;;;5087039;28;20133;-79
2022/07/24 05:50:59;;;;;;;0.20;0.20;;;16.90;99.90;;;;;;5070777;28;20546;-79
2022/07/24 05:53:24;;;;;;;0.10;0.10;;;16.90;99.90;;;;;;5068055;28;20488;-79
2022/07/24 05:55:50;;;;;;;0.20;0.20;;;16.70;99.90;;;;;;5068002;28;20029;-79
2022/07/24 05:58:16;;;;;;;0.20;0.20;;;17.10;99.90;;;;;;5055731;28;20118;-79
2022/07/24 06:00:43;;;;;;;0.20;0.20;;;17.00;99.90;;;;;;5061548;28;20045;-79
2022/07/24 06:03:08;;;;;;;0.20;0.20;;;17.00;99.90;;;;;;5066207;28;20384;-77
2022/07/24 06:05:34;;;;;;;0.20;0.20;;;17.10;99.90;;;;;;5061421;28;20040;-78
2022/07/24 06:08:00;;;;;;;0.20;0.20;;;17.10;99.90;;;;;;5063776;28;20122;-79
2022/07/24 06:10:25;;;;;;;0.20;0.20;;;17.20;99.90;;;;;;5065544;28;20050;-79
2022/07/24 06:12:54;;;;;;;0.10;0.10;;;17.20;99.90;;;;;;5076006;28;20511;-78
2022/07/24 06:15:22;;;;;;;0.20;0.20;;;17.40;99.90;;;;;;5063357;28;20040;-79
2022/07/24 06:17:50;;;;;;;0.10;0.10;;;17.40;99.90;;;;;;5067840;28;20094;-79
2022/07/24 06:20:16;;;;;;;0.20;0.20;;;17.50;99.90;;;;;;5079129;28;20090;-79
2022/07/24 06:22:44;;;;;;;0.13;0.13;;;17.50;99.90;;;;;;5068251;28;20044;-78
2022/07/24 06:25:10;;;;;;;0.10;0.10;;;17.60;99.90;;;;;;5052698;28;20156;-78
2022/07/24 06:27:44;;;;;;;0.20;0.20;;;17.70;99.90;;;;;;5053422;28;20047;-77
2022/07/24 06:30:21;;;;;;;0.15;0.15;;;17.80;99.90;;;;;;5061770;28;20147;-77
2022/07/24 06:32:47;;;;;;;0.20;0.20;;;17.90;99.90;;;;;;5077938;28;20083;-79
2022/07/24 06:35:13;;;;;;;0.20;0.20;;;18.10;99.90;;;;;;5050600;28;20128;-79
2022/07/24 06:37:39;;;;;;;0.20;0.20;;;18.20;99.90;;;;;;5055348;28;20123;-78
2022/07/24 06:40:05;;;;;;;0.10;0.10;;;18.30;99.90;;;;;;5061474;28;20048;-78
2022/07/24 06:42:31;;;;;;;0.20;0.20;;;18.40;99.90;;;;;;5070957;28;20048;-79
2022/07/24 06:44:57;;;;;;;0.13;0.13;;;18.50;99.90;;;;;;5069793;28;20094;-78
2022/07/24 06:47:22;;;;;;;0.30;0.30;;;18.70;99.90;;;;;;5067112;28;20051;-79
2022/07/24 06:49:48;;;;;;;0.20;0.20;;;18.90;99.90;;;;;;5066963;28;20171;-79
2022/07/24 06:52:16;;;;;;;0.15;0.15;;;18.90;99.90;;;;;;5069192;28;20067;-78
2022/07/24 06:54:42;;;;;;;0.20;0.20;;;19.00;99.90;;;;;;5068339;28;20094;-78
2022/07/24 06:57:08;;;;;;;0.20;0.20;;;19.10;99.90;;;;;;5054660;28;20049;-78
2022/07/24 06:59:34;;;;;;;0.28;0.28;;;19.20;99.90;;;;;;5063090;28;20048;-79
2022/07/24 07:01:59;;;;;;;0.20;0.20;;;19.30;99.90;;;;;;5066938;28;20132;-79
2022/07/24 07:04:25;;;;;;;0.20;0.20;;;19.40;99.90;;;;;;5069417;28;20048;-77
2022/07/24 07:06:50;;;;;;;0.20;0.20;;;19.50;99.90;;;;;;5069623;28;20033;-79
2022/07/24 07:09:16;;;;;;;0.25;0.25;;;19.50;99.90;;;;;;5061036;28;20481;-79
2022/07/24 07:11:41;;;;;;;0.20;0.20;;;19.60;99.90;;;;;;5061528;28;20048;-80
2022/07/24 07:14:07;;;;;;;0.20;0.20;;;19.70;99.90;;;;;;5054698;28;20049;-78
2022/07/24 07:16:33;;;;;;;0.20;0.20;;;19.80;99.90;;;;;;5072727;28;20043;-78
2022/07/24 07:18:58;;;;;;;0.20;0.20;;;19.80;99.90;;;;;;5073067;28;20036;-80
2022/07/24 07:21:24;;;;;;;0.20;0.20;;;19.90;99.90;;;;;;5062742;28;20610;-80
2022/07/24 07:23:50;;;;;;;0.20;0.20;;;20.00;99.90;;;;;;5065061;28;20037;-77
2022/07/24 07:26:16;;;;;;;0.20;0.20;;;20.00;99.90;;;;;;5053005;28;20519;-78
2022/07/24 07:28:42;;;;;;;0.20;0.20;;;20.10;99.90;;;;;;5065024;28;20040;-78
2022/07/24 07:31:10;;;;;;;0.20;0.20;;;20.10;99.90;;;;;;5070680;28;20052;-79
2022/07/24 07:33:36;;;;;;;0.10;0.10;;;20.20;99.90;;;;;;5075431;28;20040;-79
2022/07/24 07:36:02;;;;;;;0.20;0.20;;;20.30;99.90;;;;;;5081265;28;20043;-79
2022/07/24 07:38:28;;;;;;;0.20;0.20;;;20.40;99.90;;;;;;5072671;28;20388;-80
2022/07/24 07:40:54;;;;;;;0.20;0.20;;;20.50;99.90;;;;;;5069193;28;20041;-79
2022/07/24 07:43:22;;;;;;;0.20;0.20;;;20.60;99.90;;;;;;5065725;28;20048;-79
2022/07/24 07:45:48;;;;;;;0.20;0.20;;;20.70;99.90;;;;;;5084195;28;20040;-80
2022/07/24 07:48:17;;;;;;;0.20;0.20;;;20.80;99.90;;;;;;5075537;28;20048;-80
2022/07/24 07:50:42;;;;;;;0.20;0.20;;;21.00;99.90;;;;;;5067113;28;20424;-80
2022/07/24 07:53:08;;;;;;;0.20;0.20;;;21.10;99.90;;;;;;5065160;28;20037;-80
2022/07/24 07:55:34;;;;;;;0.20;0.20;;;21.20;99.90;;;;;;5053996;28;20159;-80
2022/07/24 07:58:01;;;;;;;0.20;0.20;;;21.30;99.90;;;;;;5069322;28;20139;-79
2022/07/24 08:00:26;;;;;;;0.20;0.20;;;21.30;99.90;;;;;;5062484;28;20488;-81
2022/07/24 08:02:52;;;;;;;0.20;0.20;;;21.40;99.90;;;;;;5068136;28;20047;-80
2022/07/24 08:05:21;;;;;;;0.20;0.20;;;21.40;99.90;;;;;;5073910;28;20036;-82
2022/07/24 08:07:46;;;;;;;0.10;0.10;;;21.50;99.90;;;;;;5062415;28;20047;-81
2022/07/24 08:10:12;;;;;;;0.20;0.20;;;21.50;99.90;;;;;;5069477;28;20053;-81
2022/07/24 08:12:38;;;;;;;0.28;0.28;;;21.60;99.90;;;;;;5055424;28;20048;-81
2022/07/24 08:15:04;;;;;;;0.17;0.17;;;21.60;99.90;;;;;;5071574;28;20571;-81
2022/07/24 08:17:30;;;;;;;0.20;0.20;;;21.70;99.90;;;;;;5067952;28;20052;-81
2022/07/24 08:19:55;;;;;;;0.20;0.20;;;21.70;99.90;;;;;;5066771;28;20044;-80
2022/07/24 08:22:21;;;;;;;0.30;0.30;;;21.80;99.90;;;;;;5062478;28;20045;-81
2022/07/24 08:24:47;;;;;;;0.20;0.20;;;21.90;99.90;;;;;;5066694;28;20045;-81
2022/07/24 08:27:12;;;;;;;0.20;0.20;;;22.00;99.90;;;;;;5059133;28;21062;-81
2022/07/24 08:29:38;;;;;;;0.20;0.20;;;22.10;99.90;;;;;;5085668;28;20050;-81
2022/07/24 08:32:04;;;;;;;0.20;0.20;;;22.10;99.90;;;;;;5067497;28;20132;-81
2022/07/24 08:34:30;;;;;;;0.20;0.20;;;22.20;99.90;;;;;;5069451;28;20075;-81
2022/07/24 08:36:55;;;;;;;0.20;0.20;;;22.40;99.90;;;;;;5059427;28;20071;-81
2022/07/24 08:39:21;;;;;;;0.20;0.20;;;22.50;99.90;;;;;;5075345;28;20483;-80
2022/07/24 08:41:46;;;;;;;0.20;0.20;;;22.60;99.90;;;;;;5064548;28;20061;-81
2022/07/24 08:44:12;;;;;;;0.20;0.20;;;22.70;99.90;;;;;;5068580;28;20044;-80
2022/07/24 08:46:40;;;;;;;0.20;0.20;;;22.80;99.90;;;;;;5076116;28;20462;-81
2022/07/24 08:49:15;;;;;;;0.20;0.20;;;22.80;99.90;;;;;;5061164;28;20036;-81
2022/07/24 08:51:46;;;;;;;0.20;0.20;;;22.80;99.90;;;;;;5070027;28;20067;-80
2022/07/24 08:54:11;;;;;;;0.30;0.30;;;22.80;99.90;;;;;;5072483;28;20618;-79
2022/07/24 08:56:41;;;;;;;0.20;0.20;;;22.80;99.90;;;;;;5066084;28;20049;-80
2022/07/24 08:59:26;;;;;;;0.20;0.20;;;22.80;99.90;;;;;;5065619;28;20045;-78
2022/07/24 09:01:54;;;;;;;0.20;0.20;;;22.90;99.90;;;;;;5064013;28;20040;-79
2022/07/24 09:04:35;;;;;;;0.15;0.15;;;23.00;99.90;;;;;;5061054;28;20127;-79
2022/07/24 09:07:03;;;;;;;0.20;0.20;;;22.90;99.90;;;;;;5079680;28;20101;-79
2022/07/24 09:09:28;;;;;;;0.20;0.20;;;23.00;99.90;;;;;;5065625;28;20357;-82
2022/07/24 09:12:09;;;;;;;0.20;0.20;;;22.80;99.90;;;;;;5064480;28;20044;-80
2022/07/24 09:14:39;;;;;;;;;;;23.00;99.90;;;;;;5068311;28;20171;-80
2022/07/24 09:17:15;;;;;;;0.20;0.20;;;23.10;99.90;;;;;;5072458;28;19920;-80
2022/07/24 09:19:59;;;;;;;0.20;0.20;;;23.10;99.90;;;;;;5069953;28;20071;-80
2022/07/24 09:22:34;;;;;;;0.20;0.20;;;23.20;99.90;;;;;;5059761;28;20119;-79
2022/07/24 09:25:08;;;;;;;0.30;0.30;;;23.20;99.90;;;;;;5061050;28;20072;-80
2022/07/24 09:27:35;;;;;;;0.20;0.20;;;23.20;99.90;;;;;;5071675;28;20036;-80
2022/07/24 09:30:02;;;;;;;0.20;0.20;;;23.20;99.90;;;;;;5063334;28;20055;-80
2022/07/24 09:32:28;;;;;;;0.20;0.20;;;23.30;99.90;;;;;;5071270;28;20040;-80
2022/07/24 09:34:54;;;;;;;0.20;0.20;;;23.30;99.90;;;;;;5067177;28;20041;-80
2022/07/24 09:37:21;;;;;;;0.20;0.20;;;23.50;99.90;;;;;;5069711;28;20049;-80
2022/07/24 09:39:48;;;;;;;0.20;0.20;;;23.50;99.90;;;;;;5070207;28;20039;-80
2022/07/24 09:42:14;;;;;;;0.20;0.20;;;23.60;99.90;;;;;;5066548;28;20167;-80
2022/07/24 09:44:40;;;;;;;0.20;0.20;;;23.60;99.90;;;;;;5061392;28;20063;-80
2022/07/24 09:47:11;;;;;;;0.20;0.20;;;23.70;99.90;;;;;;5068101;28;20041;-81
2022/07/24 09:49:38;;;;;;;0.20;0.20;;;23.80;99.70;;;;;;5065717;28;20032;-80
2022/07/24 09:52:12;;;;;;;0.20;0.20;;;23.80;99.90;;;;;;5055458;28;20098;-82
2022/07/24 09:54:44;;;;;;;0.20;0.20;;;23.80;99.40;;;;;;5061440;28;20507;-80
2022/07/24 09:57:22;;;;;;;0.20;0.20;;;23.90;99.50;;;;;;5060787;28;20060;-80
2022/07/24 09:59:57;;;;;;;0.30;0.30;;;24.00;99.80;;;;;;5073948;28;20094;-80
2022/07/24 10:02:30;;;;;;;0.20;0.20;;;24.00;99.80;;;;;;5055955;28;20041;-81
2022/07/24 10:04:57;;;;;;;0.28;0.28;;;24.10;99.30;;;;;;5071267;28;20048;-80
2022/07/24 10:07:25;;;;;;;0.20;0.20;;;24.20;99.30;;;;;;5061318;28;20048;-79
2022/07/24 10:09:54;;;;;;;0.20;0.20;;;24.20;99.60;;;;;;5055279;28;20041;-79
2022/07/24 10:12:22;;;;;;;0.20;0.20;;;24.30;99.60;;;;;;5054585;28;20098;-79
2022/07/24 10:14:50;;;;;;;0.20;0.20;;;24.50;99.50;;;;;;5060478;28;20037;-80
2022/07/24 10:17:18;;;;;;;0.20;0.20;;;24.60;99.20;;;;;;5070945;28;20124;-80
2022/07/24 10:19:45;;;;;;;0.20;0.20;;;24.70;98.50;;;;;;5066159;28;20045;-80
2022/07/24 10:22:14;;;;;;;0.20;0.20;;;24.70;98.80;;;;;;5070531;28;20552;-80
2022/07/24 10:25:05;;;;;;;0.20;0.20;;;24.80;99.40;;;;;;5061698;28;20553;-80
2022/07/24 10:27:35;;;;;;;;;;;24.90;99.00;;;;;;5052119;28;20048;-81
2022/07/24 10:30:06;;;;;;;0.20;0.20;;;25.00;98.70;;;;;;5077644;28;19965;-80
2022/07/24 10:32:33;;;;;;;;;;;25.00;98.70;;;;;;5088458;28;20063;-81
2022/07/24 10:35:18;;;;;;;0.20;0.20;;;25.10;98.10;;;;;;5068567;28;19927;-80
2022/07/24 10:37:51;;;;;;;0.20;0.20;;;25.10;97.40;;;;;;5071121;28;20116;-81
2022/07/24 10:40:26;;;;;;;0.20;0.20;;;25.10;97.10;;;;;;5070250;28;20131;-80
2022/07/24 10:43:24;;;;;;;0.20;0.20;;;25.10;97.40;;;;;;5071846;28;20074;-81
2022/07/24 10:45:56;;;;;;;0.20;0.20;;;25.20;97.20;;;;;;5063978;28;20571;-80
2022/07/24 10:48:22;;;;;;;0.20;0.20;;;25.20;96.30;;;;;;5049750;28;20057;-81
2022/07/24 10:51:07;;;;;;;0.20;0.20;;;25.20;95.60;;;;;;5067178;28;20124;-80
2022/07/24 10:53:52;;;;;;;0.20;0.20;;;25.20;95.90;;;;;;5071601;28;20127;-81
2022/07/24 10:56:28;;;;;;;0.20;0.20;;;25.20;95.60;;;;;;5070045;28;20044;-81
2022/07/24 10:59:03;;;;;;;0.15;0.15;;;25.30;95.90;;;;;;5070124;28;20171;-82
2022/07/24 11:01:32;;;;;;;0.20;0.20;;;25.40;95.80;;;;;;5056740;28;20060;-80
2022/07/24 11:04:00;;;;;;;0.13;0.13;;;25.40;96.30;;;;;;5068655;28;20048;-81
2022/07/24 11:06:43;;;;;;;0.20;0.20;;;25.50;96.40;;;;;;5070059;28;20037;-81
2022/07/24 11:09:12;;;;;;;0.20;0.20;;;25.60;95.50;;;;;;5070084;28;20459;-80
2022/07/24 11:11:56;;;;;;;0.20;0.20;;;25.60;94.70;;;;;;5070472;28;20083;-80
2022/07/24 11:14:37;;;;;;;0.20;0.20;;;25.60;94.80;;;;;;5066258;28;20074;-81
2022/07/24 11:17:22;;;;;;;;;;;25.60;94.70;;;;;;5071183;28;20044;-81
2022/07/24 11:19:58;;;;;;;0.20;0.20;;;25.60;94.70;;;;;;5068968;28;19928;-81
2022/07/24 11:22:39;;;;;;;0.20;0.20;;;25.60;94.30;;;;;;5070661;28;20052;-81
2022/07/24 11:25:08;;;;;;;0.22;0.22;;;25.60;95.00;;;;;;5068263;28;20487;-79
2022/07/24 11:27:49;;;;;;;0.20;0.20;;;25.70;94.10;;;;;;5071077;28;20459;-81
2022/07/24 11:30:16;;;;;;;0.20;0.20;;;25.70;93.60;;;;;;5054821;28;20503;-79
2022/07/24 11:32:42;;;;;;;0.20;0.20;;;25.70;93.20;;;;;;5049766;28;20064;-80
2022/07/24 11:35:08;;;;;;;0.17;0.17;;;25.80;92.40;;;;;;5067492;28;20059;-80
2022/07/24 11:37:39;;;;;;;0.22;0.22;;;25.90;92.30;;;;;;5069848;28;20045;-80
2022/07/24 11:40:09;;;;;;;0.20;0.20;;;25.90;93.20;;;;;;5068073;28;20048;-80
2022/07/24 11:42:35;;;;;;;0.20;0.20;;;26.10;93.70;;;;;;5070668;28;20670;-80
2022/07/24 11:45:01;;;;;;;0.20;0.20;;;26.10;92.80;;;;;;5054277;28;20544;-80
2022/07/24 11:47:28;;;;;;;0.20;0.20;;;26.20;92.90;;;;;;5050363;28;20056;-79
2022/07/24 11:50:00;;;;;;;0.20;0.20;;;26.30;93.10;;;;;;5050454;28;20260;-80
2022/07/24 11:52:35;;;;;;;0.20;0.20;;;26.40;92.40;;;;;;5063169;28;20055;-80
2022/07/24 11:55:12;;;;;;;0.20;0.20;;;26.40;92.20;;;;;;5068196;28;20513;-80
2022/07/24 11:57:40;;;;;;;0.20;0.20;;;26.50;92.30;;;;;;5068629;28;20056;-80
2022/07/24 12:00:11;;;;;;;0.20;0.20;;;26.60;92.50;;;;;;5053767;28;20045;-80
2022/07/24 12:02:48;;;;;;;0.20;0.20;;;26.70;92.20;;;;;;5053919;28;20036;-80
2022/07/24 12:05:27;;;;;;;0.20;0.20;;;26.80;91.70;;;;;;5060600;28;20115;-81
2022/07/24 12:07:53;;;;;;;0.20;0.20;;;27.00;91.20;;;;;;5086456;28;20060;-81
2022/07/24 12:10:23;;;;;;;0.22;0.22;;;27.00;91.00;;;;;;5068796;28;20090;-80
2022/07/24 12:12:53;;;;;;;0.23;0.23;;;27.00;91.30;;;;;;5069562;28;20447;-78
2022/07/24 12:15:21;;;;;;;0.30;0.30;;;27.10;90.00;;;;;;5048816;28;20049;-79
2022/07/24 12:18:07;;;;;;;0.20;0.20;;;27.00;88.70;;;;;;5049154;28;20049;-78
2022/07/24 12:20:35;;;;;;;0.20;0.20;;;27.00;89.00;;;;;;5049285;28;20064;-79
2022/07/24 12:23:03;;;;;;;0.20;0.20;;;27.00;89.20;;;;;;5049952;28;20467;-79
2022/07/24 12:25:29;;;;;;;0.20;0.20;;;27.10;89.70;;;;;;5048323;28;20120;-80
2022/07/24 12:28:21;;;;;;;0.20;0.20;;;27.10;89.30;;;;;;5054354;28;20065;-80
2022/07/24 12:30:51;;;;;;;0.25;0.25;;;27.20;89.50;;;;;;5062139;28;20552;-81
2022/07/24 12:33:26;;;;;;;0.20;0.20;;;27.20;89.40;;;;;;5071505;28;20420;-81
2022/07/24 12:35:57;;;;;;;0.20;0.20;;;27.30;88.80;;;;;;5072701;28;20047;-81
2022/07/24 12:38:25;;;;;;;0.20;0.20;;;27.30;89.00;;;;;;5073372;28;20044;-78
2022/07/24 12:41:00;;;;;;;0.20;0.20;;;27.40;87.60;;;;;;5071117;28;20081;-79
2022/07/24 12:43:28;;;;;;;0.20;0.20;;;27.50;88.20;;;;;;5061534;28;20067;-78
2022/07/24 12:46:10;;;;;;;0.20;0.20;;;27.50;86.10;;;;;;5052647;28;20040;-79
2022/07/24 12:48:37;;;;;;;0.20;0.20;;;27.60;85.30;;;;;;5053023;28;20068;-80
2022/07/24 12:51:10;;;;;;;0.20;0.20;;;27.70;86.10;;;;;;5052418;28;20126;-80
2022/07/24 12:53:38;;;;;;;0.20;0.20;;;27.80;85.60;;;;;;5058260;28;20399;-79